Terminal Aerodrome Forecast
Issued by NWS

Home | Current Version | Previous Version | Text Only | Print | Product List | Glossary On
Versions: 1 2 3 4 5 6 7 8 9 10 11 12 13 14 15 16 17 18
000
FTUS43 KDTX 021726
TAFPTK
TAF
KPTK 021726Z 0218/0318 02009KT P6SM BKN018 OVC035
     FM022000 03007KT P6SM BKN035
     FM030200 01003KT P6SM SCT200
     FM030800 VRB02KT 3SM BR SCT250
     FM031200 VRB04KT P6SM SKC
     FM031600 29005KT P6SM SCT045
      TEMPO 0316/0318 BKN045=

USA.gov is the U.S. government's official web portal to all federal, state and local government web resources and services.